Map

Track Data

SID SEASON NUMBER BASIN SUBBASIN NAME ISO_TIME NATURE LAT LON WMO_WIND WMO_PRES WMO_AGENCY TRACK_TYPE DIST2LAND LANDFALL IFLAG USA_AGENCY USA_ATCF_ID USA_LAT USA_LON USA_RECORD USA_STATUS USA_WIND USA_PRES USA_SSHS USA_R34_NE USA_R34_SE USA_R34_SW USA_R34_NW USA_R50_NE USA_R50_SE USA_R50_SW USA_R50_NW USA_R64_NE USA_R64_SE USA_R64_SW USA_R64_NW USA_POCI USA_ROCI USA_RMW USA_EYE TOKYO_LAT TOKYO_LON TOKYO_GRADE TOKYO_WIND TOKYO_PRES TOKYO_R50_DIR TOKYO_R50_LONG TOKYO_R50_SHORT TOKYO_R30_DIR TOKYO_R30_LONG TOKYO_R30_SHORT TOKYO_LAND CMA_LAT CMA_LON CMA_CAT CMA_WIND CMA_PRES HKO_LAT HKO_LON HKO_CAT HKO_WIND HKO_PRES NEWDELHI_LAT NEWDELHI_LON NEWDELHI_GRADE NEWDELHI_WIND NEWDELHI_PRES NEWDELHI_CI NEWDELHI_DP NEWDELHI_POCI REUNION_LAT REUNION_LON REUNION_TYPE REUNION_WIND REUNION_PRES REUNION_TNUM REUNION_CI REUNION_RMW REUNION_R34_NE REUNION_R34_SE REUNION_R34_SW REUNION_R34_NW REUNION_R50_NE REUNION_R50_SE REUNION_R50_SW REUNION_R50_NW REUNION_R64_NE REUNION_R64_SE REUNION_R64_SW REUNION_R64_NW BOM_LAT BOM_LON BOM_TYPE BOM_WIND BOM_PRES BOM_TNUM BOM_CI BOM_RMW BOM_R34_NE BOM_R34_SE BOM_R34_SW BOM_R34_NW BOM_R50_NE BOM_R50_SE BOM_R50_SW BOM_R50_NW BOM_R64_NE BOM_R64_SE BOM_R64_SW BOM_R64_NW BOM_ROCI BOM_POCI BOM_EYE BOM_POS_METHOD BOM_PRES_METHOD NADI_LAT NADI_LON NADI_CAT NADI_WIND NADI_PRES WELLINGTON_LAT WELLINGTON_LON WELLINGTON_WIND WELLINGTON_PRES DS824_LAT DS824_LON DS824_STAGE DS824_WIND DS824_PRES TD9636_LAT TD9636_LON TD9636_STAGE TD9636_WIND TD9636_PRES TD9635_LAT TD9635_LON TD9635_WIND TD9635_PRES TD9635_ROCI NEUMANN_LAT NEUMANN_LON NEUMANN_CLASS NEUMANN_WIND NEUMANN_PRES MLC_LAT MLC_LON MLC_CLASS MLC_WIND MLC_PRES USA_GUST BOM_GUST BOM_GUST_PER REUNION_GUST REUNION_GUST_PER USA_SEAHGT USA_SEARAD_NE USA_SEARAD_SE USA_SEARAD_SW USA_SEARAD_NW STORM_SPEED STORM_DIR
1985025S15203 1985 14 SP MM FREDA 1985-01-24 12:00:00 TS -14.9000 -156.600 main 1685 1675 O___________O_ jtwc_sh SH151985 -14.9000 -156.600 XX 25 -5 -14.9000 -156.600 TC 25 5 216
1985025S15203 1985 14 SP MM FREDA 1985-01-24 15:00:00 TS -15.0875 -156.742 main 1675 1654 P___________P_ SH151985 -15.0875 -156.742 XX 27 -5 -15.0875 -156.742 TC 27 5 216
1985025S15203 1985 14 SP MM FREDA 1985-01-24 18:00:00 TS -15.3000 -156.900 main 1655 1635 O___________O_ jtwc_sh SH151985 -15.3000 -156.900 XX 30 -5 -15.3000 -156.900 TC 30 6 216
1985025S15203 1985 14 SP MM FREDA 1985-01-24 21:00:00 TS -15.5500 -157.085 main 1635 1617 P___________P_ SH151985 -15.5500 -157.085 XX 30 -5 -15.5500 -157.085 TC 30 6 218
1985025S15203 1985 14 SP MM FREDA 1985-01-25 00:00:00 TS -15.8000 -157.300 main 1617 1597 O___________O_ jtwc_sh SH151985 -15.8000 -157.300 XX 30 -5 -15.8000 -157.300 TC 30 6 224
1985025S15203 1985 14 SP MM FREDA 1985-01-25 03:00:00 TS -16.0000 -157.543 main 1598 1570 P___________P_ SH151985 -16.0000 -157.543 XX 30 -5 -16.0000 -157.543 TC 30 6 230
1985025S15203 1985 14 SP MM FREDA 1985-01-25 06:00:00 TS -16.2000 -157.800 main 1570 1552 O___________O_ jtwc_sh SH151985 -16.2000 -157.800 XX 30 -5 -16.2000 -157.800 TC 30 7 227
1985025S15203 1985 14 SP MM FREDA 1985-01-25 09:00:00 TS -16.4499 -158.043 main 1552 1513 P___________P_ SH151985 -16.4499 -158.043 XX 30 -5 -16.4499 -158.043 TC 30 7 233
1985025S15203 1985 14 SP MM FREDA 1985-01-25 12:00:00 TS -16.6222 -158.378 30 997 wellington main 1513 1486 O_______O___O_ jtwc_sh SH151985 -16.7000 -158.300 XX 30 -5 -16.0000 -159.000 30 997 -16.7000 -158.300 TC 30 7 242
1985025S15203 1985 14 SP MM FREDA 1985-01-25 15:00:00 TS -16.7941 -158.715 main 1486 1457 P_______P___P_ SH151985 -16.8999 -158.578 XX 32 -5 -16.3708 -159.265 30 997 -16.8999 -158.578 TC 32 8 240
1985025S15203 1985 14 SP MM FREDA 1985-01-25 18:00:00 TS -17.0027 -159.070 main 1449 1423 O_______P___O_ jtwc_sh SH151985 -17.1000 -158.900 XX 35 -5 -16.7431 -159.524 30 997 -17.1000 -158.900 TC 35 8 237
1985025S15203 1985 14 SP MM FREDA 1985-01-25 21:00:00 TS -17.2529 -159.442 main 1426 1390 P_______P___P_ SH151985 -17.3200 -159.278 XX 35 -5 -17.1189 -159.771 30 997 -17.3200 -159.278 TC 35 8 235
1985025S15203 1985 14 SP MM FREDA 1985-01-26 00:00:00 TS -17.4769 -159.777 30 997 wellington main 1390 1366 O_______O_O_O_ jtwc_sh SH151985 -17.6000 -159.700 XX 35 -5 -17.5000 -160.000 30 997 -16.4000 -159.500 1 -17.6000 -159.700 TC 35 8 230
1985025S15203 1985 14 SP MM FREDA 1985-01-26 03:00:00 TS -17.7835 -160.111 main 1369 1346 P_______P_P_P_ SH151985 -17.9699 -160.135 XX 35 -5 -17.8882 -160.210 35 994 -16.8285 -159.818 1 -17.9699 -160.135 TC 35 9 224
1985025S15203 1985 14 SP MM FREDA 1985-01-26 06:00:00 TS -18.1402 -160.462 main 1340 1326 O_______P_P_O_ jtwc_sh SH151985 -18.4000 -160.600 XX 35 -5 -18.2841 -160.427 40 991 -17.2555 -160.139 1 -18.4000 -160.600 TC 35 10 223
1985025S15203 1985 14 SP MM FREDA 1985-01-26 09:00:00 TS -18.5244 -160.832 main 1326 1304 P_______P_P_P_ SH151985 -18.8649 -161.092 XX 35 -5 -18.6880 -160.679 45 988 -17.6797 -160.465 1 -18.8649 -161.092 TC 35 11 223
1985025S15203 1985 14 SP MM FREDA 1985-01-26 12:00:00 TS -18.9500 -161.250 50 985 wellington main 1304 1276 O_______O_O_O_ jtwc_sh SH151985 -19.3000 -161.600 XX 35 -5 -19.1000 -161.000 50 985 -18.1000 -160.800 2 -19.3000 -161.600 TC 35 11 225
1985025S15203 1985 14 SP MM FREDA 1985-01-26 15:00:00 TS -19.3240 -161.680 main 1276 1256 P_______P_P_P_ SH151985 -19.6148 -162.093 XX 35 -5 -19.5497 -161.387 52 982 -18.5166 -161.145 2 -19.6148 -162.093 TC 35 11 229
1985025S15203 1985 14 SP MM FREDA 1985-01-26 18:00:00 TS -19.6840 -162.139 main 1261 1234 O_______P_P_O_ jtwc_sh SH151985 -19.9000 -162.600 XX 35 -5 -20.0015 -161.850 55 980 -18.9345 -161.506 2 -19.9000 -162.600 TC 35 12 231
1985025S15203 1985 14 SP MM FREDA 1985-01-26 21:00:00 TS -20.0681 -162.640 main 1240 1216 P_______P_P_P_ SH151985 -20.2424 -163.143 XX 35 -5 -20.4274 -162.387 57 977 -19.3602 -161.889 2 -20.2424 -163.143 TC 35 12 232
1985025S15203 1985 14 SP MM FREDA 1985-01-27 00:00:00 TS -20.4500 -163.175 60 975 wellington main 1208 1194 O_______O_O_O_ jtwc_sh SH151985 -20.6000 -163.700 XX 35 -5 -20.8000 -163.000 60 975 -19.8000 -162.300 2 -20.6000 -163.700 TC 35 13 234
1985025S15203 1985 14 SP MM FREDA 1985-01-27 03:00:00 TS -20.7943 -163.722 main 1194 1169 P_______P_P_P_ SH151985 -20.9498 -164.250 XX 37 -5 -21.0220 -163.682 62 972 -20.2557 -162.707 2 -20.9498 -164.250 TC 37 13 237
1985025S15203 1985 14 SP MM FREDA 1985-01-27 06:00:00 TS -21.1310 -164.294 main 1169 1155 O_______P_P_O_ jtwc_sh SH151985 -21.3000 -164.800 XX 40 -5 -21.1980 -164.430 65 970 -20.7260 -163.147 2 -21.3000 -164.800 TC 40 13 238
1985025S15203 1985 14 SP MM FREDA 1985-01-27 09:00:00 TS -21.4732 -164.885 main 1157 1141 P_______P_P_P_ SH151985 -21.6422 -165.343 XX 42 -5 -21.3999 -165.214 67 967 -21.2084 -163.639 2 -21.6422 -165.343 TC 42 13 237
1985025S15203 1985 14 SP MM FREDA 1985-01-27 12:00:00 TS -21.8500 -165.500 70 965 wellington main 1141 1139 O_______O_O_O_ jtwc_sh SH151985 -22.0000 -165.900 XX 45 -5 -21.7000 -166.000 70 965 -21.7000 -164.200 2 -22.0000 -165.900 TC 45 14 235
1985025S15203 1985 14 SP MM FREDA 1985-01-27 15:00:00 TS -22.2894 -166.143 main 1148 1140 P_______P_P_P_ SH151985 -22.3849 -166.493 XX 47 -5 -22.2124 -166.776 72 962 -22.1755 -164.811 2 -22.3849 -166.493 TC 47 15 233
1985025S15203 1985 14 SP MM FREDA 1985-01-27 18:00:00 TS -22.7714 -166.811 main 1156 1151 O_______P_P_O_ jtwc_sh SH151985 -22.8000 -167.100 XX 50 -5 -22.8251 -167.549 75 960 -22.6606 -165.497 2 -22.8000 -167.100 TC 50 16 231
1985025S15203 1985 14 SP MM FREDA 1985-01-27 21:00:00 TS -23.2813 -167.489 main 1172 1167 P_______P_P_P_ SH151985 -23.2423 -167.700 XX 55 -5 -23.4751 -168.298 77 957 -23.1654 -166.259 2 -23.2423 -167.700 TC 55 16 231
1985025S15203 1985 14 SP MM FREDA 1985-01-28 00:00:00 TS -23.8000 -168.175 80 955 wellington main 1195 1195 O_______O_O_O_ jtwc_sh SH151985 -23.7000 -168.300 XX 60 -5 -24.1000 -169.000 80 955 -23.7000 -167.100 4 -23.7000 -168.300 TC 60 16 232
1985025S15203 1985 14 SP MM FREDA 1985-01-28 03:00:00 TS -24.2879 -168.901 main 1224 1221 P_______P_P_P_ SH151985 -24.1347 -168.893 XX 62 -5 -24.5900 -169.680 78 956 -24.2921 -168.138 4 -24.1347 -168.893 TC 62 17 233
1985025S15203 1985 14 SP MM FREDA 1985-01-28 06:00:00 TS -24.7891 -169.634 main 1260 1257 O_______P_P_O_ jtwc_sh SH151985 -24.6000 -169.500 XX 65 -5 -25.0494 -170.302 77 957 -24.9069 -169.235 4 -24.6000 -169.500 TC 65 17 232
1985025S15203 1985 14 SP MM FREDA 1985-01-28 09:00:00 TS -25.3167 -170.365 main 1299 1299 P_______P_P_P_ SH151985 -25.1202 -170.173 XX 70 -5 -25.5092 -170.848 76 958 -25.5175 -170.266 4 -25.1202 -170.173 TC 70 16 229
1985025S15203 1985 14 SP MM FREDA 1985-01-28 12:00:00 TS -25.8750 -171.000 75 960 wellington main 1359 1358 O_______O_O_O_ jtwc_sh SH151985 -25.7000 -170.800 XX 75 -5 -26.0000 -171.300 75 960 -26.1000 -171.100 4 -25.7000 -170.800 TC 75 15 222
1985025S15203 1985 14 SP MM FREDA 1985-01-28 15:00:00 TS -26.4422 -171.484 main 1369 1368 P_______P_P_P_ SH151985 -26.3272 -171.296 XX 77 -5 -26.5347 -171.716 72 962 -26.5799 -171.630 4 -26.3272 -171.296 TC 77 14 213
1985025S15203 1985 14 SP MM FREDA 1985-01-28 18:00:00 TS -27.0379 -171.843 main 1391 1391 O_______P_P_O_ jtwc_sh SH151985 -27.0000 -171.700 XX 80 -5 -27.1088 -172.031 70 965 -27.0427 -171.941 4 -27.0000 -171.700 TC 80 14 205
1985025S15203 1985 14 SP MM FREDA 1985-01-28 21:00:00 TS -27.6695 -172.125 main 1411 1346 P_______P_P_P_ SH151985 -27.7075 -172.095 XX 77 -5 -27.7286 -172.230 67 967 -27.5344 -172.081 4 -27.7075 -172.095 TC 77 14 197
1985025S15203 1985 14 SP MM FREDA 1985-01-29 00:00:00 TS -28.3250 -172.300 65 970 wellington main 1346 1272 O_______O_O_O_ jtwc_sh SH151985 -28.4000 -172.400 XX 75 -5 -28.4000 -172.300 65 970 -28.1000 -172.100 4 -28.4000 -172.400 TC 75 14 193
1985025S15203 1985 14 SP MM FREDA 1985-01-29 03:00:00 TS -28.9963 -172.463 main 1272 1220 P_______P_P_P_ SH151985 -29.0148 -172.640 XX 72 -5 -29.1293 -172.371 62 972 -28.8261 -172.202 4 -29.0148 -172.640 TC 72 14 186
1985025S15203 1985 14 SP MM FREDA 1985-01-29 06:00:00 TS -29.6825 -172.470 main 1211 1174 O_______P_P_O_ jtwc_sh SH151985 -29.6000 -172.700 XX 70 -5 -29.9064 -172.296 60 975 -29.6235 -172.182 4 -29.6000 -172.700 TC 70 14 174
1985025S15203 1985 14 SP MM FREDA 1985-01-29 09:00:00 TS -30.3696 -172.301 main 1165 1138 P_______P_P_P_ SH151985 -30.1693 -172.591 XX 67 -5 -30.7055 -172.024 57 977 -30.4343 -171.997 4 -30.1693 -172.591 TC 67 15 160
1985025S15203 1985 14 SP MM FREDA 1985-01-29 12:00:00 TS -31.0750 -171.875 55 980 wellington main 1138 1129 O_______O_O_O_ jtwc_sh SH151985 -30.8000 -172.200 XX 65 -5 -31.5000 -171.500 55 980 -31.2000 -171.600 2 -30.8000 -172.200 TC 65 17 147
1985025S15203 1985 14 SP MM FREDA 1985-01-29 15:00:00 TS -31.8165 -171.214 main 1137 1130 P_______P_P_P_ SH151985 -31.5613 -171.563 XX 62 -5 -32.2687 -170.769 53 981 -31.8748 -170.962 2 -31.5613 -171.563 TC 62 20 138
1985025S15203 1985 14 SP MM FREDA 1985-01-29 18:00:00 TS -32.5785 -170.284 main 1155 1155 O_______P_P_O_ jtwc_sh SH151985 -32.4000 -170.600 XX 60 -5 -33.0186 -169.771 52 982 -32.4676 -170.125 2 -32.4000 -170.600 TC 60 24 131
1985025S15203 1985 14 SP MM FREDA 1985-01-29 21:00:00 TS -33.3695 -169.105 main 1207 1207 P_______P_P_P_ SH151985 -33.2793 -169.378 XX 55 -5 -33.7341 -168.538 51 983 -33.0014 -169.150 2 -33.2793 -169.378 TC 55 27 126
1985025S15203 1985 14 SP MM FREDA 1985-01-30 00:00:00 TS -34.1462 -167.669 50 985 wellington main 1293 1293 O_______O_O_O_ jtwc_sh SH151985 -34.1000 -167.900 XX 50 -5 -34.4000 -167.100 50 985 -33.5000 -168.100 2 -34.1000 -167.900 TC 50 29 120
1985025S15203 1985 14 SP MM FREDA 1985-01-30 03:00:00 TS -34.8444 -166.065 main 1404 1404 P_______P___P_ SH151985 -34.7643 -166.352 XX 47 -5 -35.0047 -165.491 47 986 2 -34.7643 -166.352 TC 47 30 114
1985025S15203 1985 14 SP MM FREDA 1985-01-30 06:00:00 TS -35.3837 -164.315 main 1542 1542 O_______P___O_ jtwc_sh SH151985 -35.3000 -164.600 XX 45 -5 -35.5512 -163.746 45 987 2 -35.3000 -164.600 TC 45 32 108
1985025S15203 1985 14 SP MM FREDA 1985-01-30 09:00:00 TS -35.8395 -162.380 main 1698 1698 P_______P___P_ SH151985 -35.7360 -162.619 XX 40 -5 -36.0467 -161.903 42 988 2 -35.7360 -162.619 TC 40 33 105
1985025S15203 1985 14 SP MM FREDA 1985-01-30 12:00:00 TS -36.2333 -160.333 40 990 wellington main 1873 O_______O___O_ jtwc_sh SH151985 -36.1000 -160.500 XX 35 -5 -36.5000 -160.000 40 990 -36.1000 -160.500 TC 35 34 103

Digital Typhoon Data and Search

About IBTrACS Database

This database is a web-friendly format of International Best Track Archive for Climate Stewardship (IBTrACS), a global best track data archive curated by NOAA dating back to 1842.

Updated: 2021-10-21